createdAt,value
2022-10-18T00:00:12.396Z,6.20
2022-10-18T00:02:39.884Z,6.20
2022-10-18T00:05:07.742Z,6.20
2022-10-18T00:07:35.312Z,6.20
2022-10-18T00:10:02.870Z,6.20
2022-10-18T00:12:32.517Z,6.10
2022-10-18T00:14:59.929Z,6.10
2022-10-18T00:17:27.794Z,6.10
2022-10-18T00:19:55.364Z,6.10
2022-10-18T00:22:22.991Z,6.10
2022-10-18T00:24:50.379Z,6.00
2022-10-18T00:27:17.995Z,6.00
2022-10-18T00:29:45.553Z,6.00
2022-10-18T00:32:12.982Z,6.00
2022-10-18T00:34:40.616Z,6.00
2022-10-18T00:37:08.550Z,5.90
2022-10-18T00:39:35.995Z,5.90
2022-10-18T00:42:03.649Z,6.00
2022-10-18T00:44:31.007Z,5.90
2022-10-18T00:47:02.272Z,5.90
2022-10-18T00:49:32.178Z,5.80
2022-10-18T00:51:59.488Z,5.80
2022-10-18T00:54:27.859Z,5.80
2022-10-18T00:56:55.495Z,5.80
2022-10-18T00:59:23.496Z,5.80
2022-10-18T01:01:51.887Z,5.80
2022-10-18T01:04:20.961Z,5.70
2022-10-18T01:07:07.060Z,5.70
2022-10-18T01:09:34.456Z,5.70
2022-10-18T01:12:09.617Z,5.70
2022-10-18T01:14:47.252Z,5.70
2022-10-18T01:17:26.376Z,5.70
2022-10-18T01:20:00.185Z,5.70
2022-10-18T01:22:31.471Z,5.70
2022-10-18T01:25:08.369Z,5.60
2022-10-18T01:27:44.849Z,5.60
2022-10-18T01:30:21.712Z,5.60
2022-10-18T01:32:52.443Z,5.60
2022-10-18T01:35:26.502Z,5.70
2022-10-18T01:37:56.126Z,5.60
2022-10-18T01:40:23.662Z,5.60
2022-10-18T01:42:51.214Z,5.60
2022-10-18T01:45:19.117Z,5.60
2022-10-18T01:47:47.215Z,5.60
2022-10-18T01:50:14.546Z,5.60
2022-10-18T01:52:48.929Z,5.60
2022-10-18T01:55:16.615Z,5.60
2022-10-18T01:58:05.941Z,5.50
2022-10-18T02:00:42.305Z,5.50
2022-10-18T02:03:23.301Z,5.50
2022-10-18T02:05:50.673Z,5.50
2022-10-18T02:08:23.172Z,5.40
2022-10-18T02:10:54.656Z,5.40
2022-10-18T02:13:23.457Z,5.40
2022-10-18T02:15:56.042Z,5.40
2022-10-18T02:18:25.583Z,5.30
2022-10-18T02:20:54.472Z,5.40
2022-10-18T02:23:23.729Z,5.30
2022-10-18T02:25:51.121Z,5.30
2022-10-18T02:28:18.738Z,5.30
2022-10-18T02:30:49.179Z,5.20
2022-10-18T02:33:19.476Z,5.20
2022-10-18T02:35:52.586Z,5.20
2022-10-18T02:38:21.073Z,5.20
2022-10-18T02:40:48.393Z,5.20
2022-10-18T02:43:15.775Z,5.10
2022-10-18T02:45:43.162Z,5.10
2022-10-18T02:48:10.935Z,5.00
2022-10-18T02:50:38.326Z,5.00
2022-10-18T02:53:05.680Z,5.00
2022-10-18T02:55:33.237Z,5.00
2022-10-18T02:58:00.623Z,5.00
2022-10-18T03:00:27.923Z,5.00
2022-10-18T03:02:55.304Z,5.00
2022-10-18T03:05:22.689Z,5.00
2022-10-18T03:07:50.281Z,5.00
2022-10-18T03:10:17.591Z,4.90
2022-10-18T03:12:45.048Z,4.90
2022-10-18T03:15:12.368Z,4.90
2022-10-18T03:17:39.747Z,4.90
2022-10-18T03:20:07.402Z,4.80
2022-10-18T03:22:34.904Z,4.70
2022-10-18T03:25:02.236Z,4.70
2022-10-18T03:27:29.903Z,4.60
2022-10-18T03:29:57.486Z,4.60
2022-10-18T03:32:24.880Z,4.60
2022-10-18T03:34:52.327Z,4.50
2022-10-18T03:37:19.647Z,4.50
2022-10-18T03:39:46.945Z,4.50
2022-10-18T03:42:14.335Z,4.50
2022-10-18T03:44:41.694Z,4.40
2022-10-18T03:47:09.024Z,4.40
2022-10-18T03:49:36.363Z,4.40
2022-10-18T03:52:03.804Z,4.40
2022-10-18T03:54:31.203Z,4.40
2022-10-18T03:56:58.596Z,4.40
2022-10-18T03:59:25.891Z,4.40
2022-10-18T04:01:53.449Z,4.40
2022-10-18T04:04:20.838Z,4.40
2022-10-18T04:06:48.259Z,4.30
2022-10-18T04:09:15.579Z,4.30
2022-10-18T04:11:42.962Z,4.30
2022-10-18T04:14:10.335Z,4.30
2022-10-18T04:16:37.758Z,4.30
2022-10-18T04:19:05.224Z,4.20
2022-10-18T04:21:32.571Z,4.30
2022-10-18T04:24:00.136Z,4.20
2022-10-18T04:26:27.513Z,4.30
2022-10-18T04:28:55.431Z,4.30
2022-10-18T04:31:23.113Z,4.20
2022-10-18T04:33:50.443Z,4.20
2022-10-18T04:36:17.784Z,4.20
2022-10-18T04:38:45.123Z,4.20
2022-10-18T04:41:12.727Z,4.20
2022-10-18T04:43:40.124Z,4.20
2022-10-18T04:46:07.539Z,4.10
2022-10-18T04:48:34.941Z,4.10
2022-10-18T04:51:02.326Z,4.10
2022-10-18T04:53:29.865Z,4.10
2022-10-18T04:55:57.258Z,4.10
2022-10-18T04:58:24.829Z,4.10
2022-10-18T05:00:52.282Z,4.10
2022-10-18T05:03:19.764Z,4.00
2022-10-18T05:06:01.441Z,4.00
2022-10-18T05:08:29.797Z,4.00
2022-10-18T05:10:57.286Z,3.90
2022-10-18T05:13:24.902Z,4.00
2022-10-18T05:15:52.336Z,4.00
2022-10-18T05:18:20.084Z,3.90
2022-10-18T05:20:47.417Z,3.90
2022-10-18T05:23:14.883Z,3.90
2022-10-18T05:25:43.191Z,3.90
2022-10-18T05:28:15.784Z,3.90
2022-10-18T05:30:54.822Z,3.90
2022-10-18T05:33:22.138Z,3.90
2022-10-18T05:35:49.532Z,3.90
2022-10-18T05:38:16.860Z,3.90
2022-10-18T05:40:44.270Z,3.90
2022-10-18T05:43:11.578Z,3.90
2022-10-18T05:45:39.369Z,3.90
2022-10-18T05:48:08.005Z,3.80
2022-10-18T05:50:38.101Z,3.90
2022-10-18T05:53:12.469Z,3.90
2022-10-18T05:55:45.871Z,3.90
2022-10-18T05:58:13.324Z,4.00
2022-10-18T06:00:40.800Z,4.10
2022-10-18T06:03:08.155Z,4.10
2022-10-18T06:05:35.747Z,4.20
2022-10-18T06:08:05.316Z,4.20
2022-10-18T06:10:38.730Z,4.30
2022-10-18T06:13:06.075Z,4.40
2022-10-18T06:15:33.480Z,4.40
2022-10-18T06:18:00.902Z,4.50
2022-10-18T06:20:28.307Z,4.60
2022-10-18T06:22:55.647Z,4.60
2022-10-18T06:25:23.254Z,4.70
2022-10-18T06:27:51.059Z,4.70
2022-10-18T06:30:18.419Z,4.70
2022-10-18T06:32:45.789Z,4.70
2022-10-18T06:35:13.309Z,4.80
2022-10-18T06:37:40.776Z,4.80
2022-10-18T06:40:08.451Z,4.80
2022-10-18T06:42:35.912Z,4.90
2022-10-18T06:45:03.573Z,5.00
2022-10-18T06:47:30.932Z,5.00
2022-10-18T06:49:58.363Z,5.00
2022-10-18T06:52:25.935Z,5.10
2022-10-18T06:54:53.932Z,5.20
2022-10-18T06:57:21.581Z,5.20
2022-10-18T06:59:50.053Z,5.20
2022-10-18T07:02:17.858Z,5.30
2022-10-18T07:04:45.423Z,5.30
2022-10-18T07:07:12.740Z,5.40
2022-10-18T07:09:40.581Z,5.40
2022-10-18T07:12:07.896Z,5.40
2022-10-18T07:14:35.341Z,5.40
2022-10-18T07:17:02.751Z,5.50
2022-10-18T07:19:30.144Z,5.50
2022-10-18T07:21:57.478Z,5.50
2022-10-18T07:24:25.066Z,5.50
2022-10-18T07:26:52.390Z,5.50
2022-10-18T07:29:19.911Z,5.60
2022-10-18T07:31:47.288Z,5.60
2022-10-18T07:34:14.869Z,5.60
2022-10-18T07:36:42.216Z,5.70
2022-10-18T07:39:09.630Z,5.70
2022-10-18T07:41:37.239Z,5.70
2022-10-18T07:44:04.723Z,5.70
2022-10-18T07:46:32.307Z,5.70
2022-10-18T07:48:59.933Z,5.70
2022-10-18T07:51:28.047Z,5.70
2022-10-18T07:53:55.471Z,5.70
2022-10-18T07:56:22.907Z,5.70
2022-10-18T07:58:51.503Z,5.70
2022-10-18T08:01:19.616Z,5.70
2022-10-18T08:03:47.158Z,5.70
2022-10-18T08:06:16.539Z,5.80
2022-10-18T08:08:44.578Z,5.80
2022-10-18T08:11:15.045Z,5.90
2022-10-18T08:13:42.973Z,5.90
2022-10-18T08:16:11.825Z,5.90
2022-10-18T08:18:39.319Z,6.00
2022-10-18T08:21:07.962Z,6.00
2022-10-18T08:23:35.811Z,6.10
2022-10-18T08:26:04.866Z,6.10
2022-10-18T08:28:32.486Z,6.20
2022-10-18T08:31:07.191Z,6.30
2022-10-18T08:33:35.897Z,6.40
2022-10-18T08:36:07.752Z,6.40
2022-10-18T08:38:35.594Z,6.50
2022-10-18T08:41:18.193Z,6.60
2022-10-18T08:43:49.957Z,6.70
2022-10-18T08:46:17.443Z,6.80
2022-10-18T08:48:50.109Z,6.90
2022-10-18T08:51:27.431Z,7.00
2022-10-18T08:53:59.779Z,7.10
2022-10-18T08:56:27.215Z,7.20
2022-10-18T08:58:54.874Z,7.30
2022-10-18T09:01:22.294Z,7.50
2022-10-18T09:04:04.664Z,7.60
2022-10-18T09:06:51.054Z,7.70
2022-10-18T09:09:18.608Z,7.80
2022-10-18T09:12:03.101Z,8.00
2022-10-18T09:14:42.635Z,8.20
2022-10-18T09:17:32.818Z,8.30
2022-10-18T09:22:50.998Z,8.60
2022-10-18T09:25:18.356Z,8.60
2022-10-18T09:27:51.035Z,8.80
2022-10-18T09:30:29.601Z,8.90
2022-10-18T09:33:04.323Z,9.00
2022-10-18T09:35:39.253Z,9.20
2022-10-18T09:38:10.010Z,9.30
2022-10-18T09:40:44.443Z,9.40
2022-10-18T09:43:23.634Z,9.60
2022-10-18T09:45:52.405Z,9.70
2022-10-18T09:48:27.295Z,10.00
2022-10-18T09:51:05.703Z,10.20
2022-10-18T09:53:44.831Z,10.30
2022-10-18T09:56:15.516Z,10.50
2022-10-18T09:58:44.617Z,10.70
2022-10-18T10:01:14.254Z,10.60
2022-10-18T10:03:42.035Z,11.00
2022-10-18T10:06:12.474Z,11.10
2022-10-18T10:08:44.420Z,11.20
2022-10-18T10:11:30.235Z,11.40
2022-10-18T10:14:07.127Z,11.60
2022-10-18T10:16:42.688Z,11.70
2022-10-18T10:19:20.466Z,11.90
2022-10-18T10:21:49.126Z,12.00
2022-10-18T10:24:20.966Z,12.20
2022-10-18T10:26:48.989Z,12.30
2022-10-18T10:29:44.615Z,12.50
2022-10-18T10:32:13.085Z,12.60
2022-10-18T10:34:44.924Z,12.80
2022-10-18T10:37:24.848Z,12.90
2022-10-18T10:40:20.525Z,13.00
2022-10-18T10:43:18.314Z,13.20
2022-10-18T10:46:03.792Z,13.30
2022-10-18T10:48:33.661Z,13.50
2022-10-18T10:51:06.167Z,13.70
2022-10-18T10:53:43.380Z,13.80
2022-10-18T10:56:16.875Z,14.00
2022-10-18T10:58:44.650Z,13.70
2022-10-18T11:01:20.400Z,14.20
2022-10-18T11:03:49.123Z,14.40
2022-10-18T11:06:45.866Z,14.50
2022-10-18T11:09:20.895Z,14.70
2022-10-18T11:11:55.346Z,14.90
2022-10-18T11:14:26.800Z,15.10
2022-10-18T11:16:59.158Z,15.40
2022-10-18T11:19:46.432Z,15.50
2022-10-18T11:22:16.477Z,15.80
2022-10-18T11:24:44.014Z,16.00
2022-10-18T11:27:25.354Z,16.30
2022-10-18T11:30:05.048Z,16.50
2022-10-18T11:32:47.680Z,16.80
2022-10-18T11:35:15.302Z,17.10
2022-10-18T11:37:48.968Z,17.30
2022-10-18T11:40:35.018Z,17.50
2022-10-18T11:43:20.528Z,17.70
2022-10-18T11:46:08.167Z,17.90
2022-10-18T11:48:48.011Z,18.20
2022-10-18T11:51:29.634Z,18.40
2022-10-18T11:54:16.896Z,18.60
2022-10-18T11:56:44.292Z,18.90
2022-10-18T11:59:19.828Z,19.20
2022-10-18T12:02:13.802Z,19.50
2022-10-18T12:04:58.479Z,19.80
2022-10-18T12:07:40.974Z,20.10
2022-10-18T12:10:09.776Z,19.80
2022-10-18T12:12:39.536Z,19.40
2022-10-18T12:15:13.439Z,18.90
2022-10-18T12:17:48.900Z,18.40
2022-10-18T12:20:19.366Z,18.50
2022-10-18T12:22:53.262Z,18.90
2022-10-18T12:25:21.033Z,19.40
2022-10-18T12:28:12.988Z,20.00
2022-10-18T12:30:44.092Z,20.50
2022-10-18T12:33:27.836Z,20.90
2022-10-18T12:36:11.402Z,21.30
2022-10-18T12:38:40.941Z,21.60
2022-10-18T12:41:16.814Z,21.90
2022-10-18T12:43:50.628Z,22.00
2022-10-18T12:46:18.074Z,22.10
2022-10-18T12:49:03.133Z,22.20
2022-10-18T12:51:30.688Z,22.40
2022-10-18T12:54:01.022Z,22.40
2022-10-18T12:56:28.747Z,22.40
2022-10-18T12:59:14.676Z,22.60
2022-10-18T13:02:05.679Z,22.70
2022-10-18T13:04:35.329Z,22.90
2022-10-18T13:07:05.639Z,23.10
2022-10-18T13:09:37.211Z,23.00
2022-10-18T13:12:10.819Z,23.00
2022-10-18T13:14:44.177Z,22.80
2022-10-18T13:17:21.254Z,22.80
2022-10-18T13:20:24.999Z,22.80
2022-10-18T13:23:06.183Z,22.90
2022-10-18T13:25:36.487Z,22.90
2022-10-18T13:28:19.448Z,22.90
2022-10-18T13:31:05.697Z,22.90
2022-10-18T13:33:38.832Z,22.80
2022-10-18T13:36:22.829Z,22.80
2022-10-18T13:38:55.610Z,23.00
2022-10-18T13:41:31.357Z,23.00
2022-10-18T13:44:23.840Z,23.00
2022-10-18T13:46:51.598Z,23.10
2022-10-18T13:49:24.904Z,23.10
2022-10-18T13:52:11.217Z,23.10
2022-10-18T13:54:47.889Z,22.90
2022-10-18T13:57:24.579Z,22.80
2022-10-18T13:59:59.644Z,22.60
2022-10-18T14:02:49.781Z,22.10
2022-10-18T14:05:24.999Z,21.40
2022-10-18T14:07:58.367Z,20.60
2022-10-18T14:10:57.316Z,19.80
2022-10-18T14:13:28.652Z,19.20
2022-10-18T14:15:58.606Z,20.00
2022-10-18T14:18:31.425Z,18.40
2022-10-18T14:21:13.484Z,18.00
2022-10-18T14:23:45.418Z,17.80
2022-10-18T14:26:14.874Z,17.50
2022-10-18T14:28:59.240Z,17.30
2022-10-18T14:31:28.095Z,17.20
2022-10-18T14:33:58.456Z,17.00
2022-10-18T14:36:29.416Z,16.90
2022-10-18T14:38:58.518Z,16.80
2022-10-18T14:41:33.386Z,16.70
2022-10-18T14:44:16.148Z,16.70
2022-10-18T14:46:43.623Z,16.60
2022-10-18T14:49:11.767Z,16.50
2022-10-18T14:51:40.468Z,16.50
2022-10-18T14:56:42.725Z,16.40
2022-10-18T14:59:29.559Z,16.30
2022-10-18T15:01:58.532Z,16.20
2022-10-18T15:04:32.764Z,16.20
2022-10-18T15:07:04.616Z,16.10
2022-10-18T15:09:33.276Z,16.10
2022-10-18T15:12:02.149Z,16.00
2022-10-18T15:14:30.263Z,16.00
2022-10-18T15:17:06.164Z,15.90
2022-10-18T15:19:35.219Z,15.90
2022-10-18T15:25:10.751Z,15.80
2022-10-18T15:27:39.602Z,15.70
2022-10-18T15:30:15.724Z,15.70
2022-10-18T15:32:53.574Z,15.60
2022-10-18T15:35:26.751Z,15.50
2022-10-18T15:37:55.925Z,15.50
2022-10-18T15:40:23.240Z,15.50
2022-10-18T15:42:51.499Z,15.50
2022-10-18T15:45:24.773Z,15.50
2022-10-18T15:48:02.850Z,15.50
2022-10-18T15:50:50.480Z,15.40
2022-10-18T15:53:21.023Z,15.40
2022-10-18T15:55:50.176Z,15.30
2022-10-18T15:58:28.538Z,15.30
2022-10-18T16:01:00.113Z,15.20
2022-10-18T16:03:27.915Z,15.20
2022-10-18T16:06:00.643Z,15.20
2022-10-18T16:08:32.400Z,15.10
2022-10-18T16:10:59.865Z,15.00
2022-10-18T16:13:27.502Z,15.00
2022-10-18T16:15:59.486Z,14.90
2022-10-18T16:18:27.011Z,14.80
2022-10-18T16:20:54.499Z,14.70
2022-10-18T16:23:22.144Z,14.70
2022-10-18T16:25:49.891Z,14.60
2022-10-18T16:28:18.945Z,14.50
2022-10-18T16:30:51.289Z,14.50
2022-10-18T16:33:21.428Z,14.40
2022-10-18T16:35:49.408Z,14.40
2022-10-18T16:38:20.618Z,14.30
2022-10-18T16:40:48.053Z,14.20
2022-10-18T16:43:15.466Z,14.10
2022-10-18T16:45:42.922Z,14.00
2022-10-18T16:48:14.749Z,14.00
2022-10-18T16:50:42.536Z,13.90
2022-10-18T16:53:09.967Z,14.80
2022-10-18T16:55:38.415Z,13.80
2022-10-18T16:58:06.163Z,13.70
2022-10-18T17:00:33.568Z,13.70
2022-10-18T17:03:01.526Z,13.60
2022-10-18T17:05:31.343Z,13.50
2022-10-18T17:07:58.693Z,13.50
2022-10-18T17:10:27.593Z,13.40
2022-10-18T17:12:54.973Z,13.30
2022-10-18T17:15:22.327Z,13.30
2022-10-18T17:17:52.336Z,13.20
2022-10-18T17:20:23.966Z,13.20
2022-10-18T17:22:51.679Z,13.10
2022-10-18T17:25:19.609Z,13.00
2022-10-18T17:27:47.252Z,13.00
2022-10-18T17:30:15.125Z,12.90
2022-10-18T17:32:44.678Z,12.90
2022-10-18T17:35:12.348Z,12.90
2022-10-18T17:37:43.958Z,12.80
2022-10-18T17:40:13.622Z,12.80
2022-10-18T17:42:41.066Z,12.70
2022-10-18T17:45:09.005Z,12.70
2022-10-18T17:47:36.422Z,12.70
2022-10-18T17:50:04.021Z,12.60
2022-10-18T17:52:31.433Z,12.60
2022-10-18T17:54:58.859Z,12.60
2022-10-18T17:57:26.201Z,12.50
2022-10-18T17:59:55.442Z,12.50
2022-10-18T18:02:22.767Z,12.40
2022-10-18T18:04:50.172Z,12.40
2022-10-18T18:07:17.565Z,12.30
2022-10-18T18:09:45.031Z,12.30
2022-10-18T18:12:12.651Z,12.30
2022-10-18T18:14:40.418Z,12.20
2022-10-18T18:17:08.231Z,12.20
2022-10-18T18:19:36.155Z,12.10
2022-10-18T18:22:04.938Z,12.10
2022-10-18T18:24:32.771Z,12.00
2022-10-18T18:27:00.404Z,12.00
2022-10-18T18:29:29.571Z,11.90
2022-10-18T18:31:57.240Z,11.90
2022-10-18T18:34:24.709Z,11.90
2022-10-18T18:36:53.027Z,11.80
2022-10-18T18:39:24.952Z,11.80
2022-10-18T18:41:52.887Z,11.80
2022-10-18T18:44:20.863Z,11.70
2022-10-18T18:46:48.885Z,11.70
2022-10-18T18:49:16.408Z,11.70
2022-10-18T18:51:43.849Z,11.60
2022-10-18T18:54:13.884Z,11.60
2022-10-18T18:56:41.863Z,11.60
2022-10-18T18:59:11.872Z,11.60
2022-10-18T19:01:39.519Z,11.60
2022-10-18T19:04:07.949Z,11.60
2022-10-18T19:06:38.649Z,11.50
2022-10-18T19:09:07.537Z,11.50
2022-10-18T19:11:35.899Z,11.50
2022-10-18T19:14:03.667Z,11.40
2022-10-18T19:16:32.151Z,11.40
2022-10-18T19:19:06.181Z,11.30
2022-10-18T19:21:34.894Z,11.30
2022-10-18T19:24:02.322Z,11.30
2022-10-18T19:26:31.968Z,11.30
2022-10-18T19:29:05.229Z,11.30
2022-10-18T19:31:34.330Z,11.30
2022-10-18T19:34:02.850Z,11.20
2022-10-18T19:36:30.602Z,11.20
2022-10-18T19:38:58.161Z,11.20
2022-10-18T19:43:58.765Z,11.20
2022-10-18T19:46:26.621Z,11.20
2022-10-18T19:48:54.334Z,11.10
2022-10-18T19:51:26.818Z,11.10
2022-10-18T19:53:56.502Z,11.10
2022-10-18T19:56:25.148Z,11.00
2022-10-18T19:58:52.875Z,11.00
2022-10-18T20:01:20.682Z,11.00
2022-10-18T20:03:49.156Z,11.00
2022-10-18T20:06:16.522Z,10.90
2022-10-18T20:08:44.111Z,10.90
2022-10-18T20:11:12.743Z,10.80
2022-10-18T20:13:40.479Z,10.80
2022-10-18T20:16:09.054Z,10.80
2022-10-18T20:18:36.774Z,10.10
2022-10-18T20:21:05.395Z,10.70
2022-10-18T20:23:34.842Z,10.70
2022-10-18T20:26:03.547Z,10.70
2022-10-18T20:28:30.983Z,10.70
2022-10-18T20:31:02.769Z,10.70
2022-10-18T20:33:30.434Z,10.60
2022-10-18T20:36:03.917Z,10.60
2022-10-18T20:38:34.865Z,10.60
2022-10-18T20:41:03.612Z,10.50
2022-10-18T20:43:31.111Z,10.50
2022-10-18T20:45:59.383Z,10.50
2022-10-18T20:48:27.339Z,10.50
2022-10-18T20:50:54.847Z,10.40
2022-10-18T20:53:22.611Z,10.40
2022-10-18T20:55:50.138Z,10.40
2022-10-18T20:58:17.694Z,10.40
2022-10-18T21:00:45.038Z,10.40
2022-10-18T21:05:44.818Z,10.30
2022-10-18T21:08:12.170Z,10.30
2022-10-18T21:10:39.606Z,10.30
2022-10-18T21:13:07.172Z,10.20
2022-10-18T21:15:34.569Z,10.30
2022-10-18T21:18:01.879Z,10.20
2022-10-18T21:20:32.222Z,10.20
2022-10-18T21:22:59.673Z,10.20
2022-10-18T21:25:26.996Z,10.20
2022-10-18T21:27:54.370Z,10.20
2022-10-18T21:30:21.862Z,10.10
2022-10-18T21:32:52.490Z,10.10
2022-10-18T21:35:19.846Z,10.10
2022-10-18T21:37:47.610Z,10.10
2022-10-18T21:40:15.121Z,10.10
2022-10-18T21:42:42.461Z,10.10
2022-10-18T21:45:10.173Z,10.10
2022-10-18T21:47:37.609Z,10.10
2022-10-18T21:50:05.204Z,10.00
2022-10-18T21:52:32.942Z,10.00
2022-10-18T21:55:00.608Z,10.00
2022-10-18T21:57:28.077Z,10.00
2022-10-18T21:59:55.544Z,10.10
2022-10-18T22:02:23.000Z,10.00
2022-10-18T22:04:50.539Z,10.00
2022-10-18T22:07:18.046Z,10.00
2022-10-18T22:09:45.479Z,10.00
2022-10-18T22:12:12.843Z,10.00
2022-10-18T22:14:40.256Z,10.00
2022-10-18T22:17:07.658Z,10.00
2022-10-18T22:19:35.061Z,10.00
2022-10-18T22:22:02.447Z,10.00
2022-10-18T22:24:29.815Z,10.00
2022-10-18T22:26:57.297Z,10.00
2022-10-18T22:29:25.196Z,10.00
2022-10-18T22:31:53.277Z,10.00
2022-10-18T22:34:22.456Z,9.90
2022-10-18T22:36:50.216Z,9.90
2022-10-18T22:39:17.690Z,9.90
2022-10-18T22:41:45.355Z,9.90
2022-10-18T22:44:13.658Z,9.90
2022-10-18T22:46:41.619Z,9.90
2022-10-18T22:49:09.463Z,9.80
2022-10-18T22:51:36.867Z,9.80
2022-10-18T22:54:04.434Z,9.80
2022-10-18T22:56:31.773Z,9.80
2022-10-18T22:58:59.189Z,9.80
2022-10-18T23:01:26.511Z,9.80
2022-10-18T23:03:55.030Z,9.90
2022-10-18T23:06:26.793Z,9.80
2022-10-18T23:08:55.607Z,9.80
2022-10-18T23:11:23.623Z,9.80
2022-10-18T23:13:51.124Z,9.80
2022-10-18T23:16:18.826Z,9.80
2022-10-18T23:18:56.252Z,9.80
2022-10-18T23:21:24.540Z,9.80
2022-10-18T23:23:52.291Z,9.80
2022-10-18T23:26:22.009Z,9.90
2022-10-18T23:28:50.761Z,9.30
2022-10-18T23:31:23.043Z,9.90
2022-10-18T23:33:52.259Z,10.00
2022-10-18T23:36:19.831Z,10.00
2022-10-18T23:38:47.384Z,10.00
2022-10-18T23:41:15.344Z,10.10
2022-10-18T23:43:44.603Z,10.00
2022-10-18T23:46:12.707Z,10.10
2022-10-18T23:48:40.083Z,10.10
2022-10-18T23:51:07.751Z,10.10
2022-10-18T23:53:35.198Z,10.20
2022-10-18T23:56:04.224Z,10.20
2022-10-18T23:58:32.214Z,10.20
